Decoded Metar for KMCB (MCCOMB in MS, USA) (IATA:MCB) | Meteo·Mobile Aviation Weather
aviador You're here:

KMCB Decoded Metar

MCCOMB in MS, USA
Report Time2018-12-13 10:53:00
UTC Time2018-12-13 11:08:23
Flight Rules vfr VFR
Wind130° at 06 kt
W.Decomp.*RWY 15: 5.5 kt HW 2.3 kt LCW
W.Rank130° ranks 16
Current wind is above 130° avg. (5.3)
Visibility9999 m
Phenomena:N/A
Clouds:N/A
Expected CloudBase > 1,600 ft AGL from Temp-Dew spread
CeilingNone
Temp13°C (ISA -1)
Dew Point09°C (77% RH)
AAT10.6°C
QNH1014 hPa
Density Alt387 ft
Elevation407 ft
Report Wrong Elevation
Raw Report
KMCB 131053Z AUTO 13006KT 7SM CLR 13/09 A2995 RMK AO2 SLP139
T01280094=

Extra information for KMCB:More info

Metar Taf Metar & Taf Last 4 Metars F.Rules Stats Wind Profile Meteogram Temp Stats Airport Information Weather charts Add Link Nearby VenuesMetar ALERT Operation Metar Decoded Social comments

AIRNAV info for KMCB